sensor_id;sensor_type;location;lat;lon;timestamp;pressure;altitude;pressure_sealevel;temperature;humidity
10008;BME280;5043;41.766;26.204;2023-08-21T00:01:03;100818.50;;;21.70;65.53
10008;BME280;5043;41.766;26.204;2023-08-21T00:03:29;100842.13;;;21.75;66.46
10008;BME280;5043;41.766;26.204;2023-08-21T00:05:55;100838.50;;;21.68;67.12
10008;BME280;5043;41.766;26.204;2023-08-21T00:08:20;100847.97;;;21.78;67.14
10008;BME280;5043;41.766;26.204;2023-08-21T00:10:45;100837.47;;;21.69;67.87
10008;BME280;5043;41.766;26.204;2023-08-21T00:13:11;100837.34;;;21.62;68.02
10008;BME280;5043;41.766;26.204;2023-08-21T00:15:38;100783.34;;;21.35;67.63
10008;BME280;5043;41.766;26.204;2023-08-21T00:18:04;100814.06;;;21.55;68.14
10008;BME280;5043;41.766;26.204;2023-08-21T00:20:30;100809.09;;;21.44;68.21
10008;BME280;5043;41.766;26.204;2023-08-21T00:22:56;100737.88;;;21.02;67.96
10008;BME280;5043;41.766;26.204;2023-08-21T00:25:21;100837.22;;;21.56;68.47
10008;BME280;5043;41.766;26.204;2023-08-21T00:27:47;100832.66;;;21.34;68.58
10008;BME280;5043;41.766;26.204;2023-08-21T00:30:13;100867.94;;;21.53;69.12
10008;BME280;5043;41.766;26.204;2023-08-21T00:32:40;100825.56;;;21.41;68.77
10008;BME280;5043;41.766;26.204;2023-08-21T00:35:06;100837.94;;;21.50;68.58
10008;BME280;5043;41.766;26.204;2023-08-21T00:37:31;100652.78;;;20.35;68.62
10008;BME280;5043;41.766;26.204;2023-08-21T00:39:57;100854.56;;;21.45;68.52
10008;BME280;5043;41.766;26.204;2023-08-21T00:42:22;100827.44;;;21.40;68.36
10008;BME280;5043;41.766;26.204;2023-08-21T00:44:47;100852.38;;;21.49;67.56
10008;BME280;5043;41.766;26.204;2023-08-21T00:47:13;100764.03;;;21.08;67.19
10008;BME280;5043;41.766;26.204;2023-08-21T00:49:38;100812.34;;;21.00;67.20
10008;BME280;5043;41.766;26.204;2023-08-21T00:52:07;100821.09;;;21.33;67.35
10008;BME280;5043;41.766;26.204;2023-08-21T00:54:34;100823.38;;;21.44;67.81
10008;BME280;5043;41.766;26.204;2023-08-21T00:57:00;100764.38;;;21.05;67.90
10008;BME280;5043;41.766;26.204;2023-08-21T00:59:26;100783.44;;;21.18;68.10
10008;BME280;5043;41.766;26.204;2023-08-21T01:01:52;100781.44;;;21.12;68.40
10008;BME280;5043;41.766;26.204;2023-08-21T01:04:17;100799.22;;;21.13;68.83
10008;BME280;5043;41.766;26.204;2023-08-21T01:06:43;100832.19;;;21.30;68.77
10008;BME280;5043;41.766;26.204;2023-08-21T01:09:30;100845.06;;;21.35;69.17
10008;BME280;5043;41.766;26.204;2023-08-21T01:12:25;100842.41;;;21.27;69.53
10008;BME280;5043;41.766;26.204;2023-08-21T01:15:04;100855.84;;;21.27;69.07
10008;BME280;5043;41.766;26.204;2023-08-21T01:17:33;100866.53;;;21.35;68.29
10008;BME280;5043;41.766;26.204;2023-08-21T01:20:00;100808.00;;;21.07;67.60
10008;BME280;5043;41.766;26.204;2023-08-21T01:22:27;100838.72;;;21.28;67.16
10008;BME280;5043;41.766;26.204;2023-08-21T01:24:54;100828.72;;;21.21;67.25
10008;BME280;5043;41.766;26.204;2023-08-21T01:27:19;100841.06;;;21.31;67.33
10008;BME280;5043;41.766;26.204;2023-08-21T01:29:47;100839.03;;;21.33;67.33
10008;BME280;5043;41.766;26.204;2023-08-21T01:32:45;100832.91;;;21.24;67.88
10008;BME280;5043;41.766;26.204;2023-08-21T01:35:14;100823.34;;;21.21;68.04
10008;BME280;5043;41.766;26.204;2023-08-21T01:37:40;100833.50;;;21.34;67.94
10008;BME280;5043;41.766;26.204;2023-08-21T01:40:06;100838.16;;;21.40;67.74
10008;BME280;5043;41.766;26.204;2023-08-21T01:42:32;100861.19;;;21.35;67.71
10008;BME280;5043;41.766;26.204;2023-08-21T01:44:57;100841.38;;;21.36;68.26
10008;BME280;5043;41.766;26.204;2023-08-21T01:47:22;100835.97;;;21.44;68.37
10008;BME280;5043;41.766;26.204;2023-08-21T01:49:48;100835.84;;;21.37;68.54
10008;BME280;5043;41.766;26.204;2023-08-21T01:52:17;100835.94;;;21.21;69.06
10008;BME280;5043;41.766;26.204;2023-08-21T01:54:43;100839.06;;;21.24;69.59
10008;BME280;5043;41.766;26.204;2023-08-21T01:57:08;100835.75;;;21.22;69.86
10008;BME280;5043;41.766;26.204;2023-08-21T01:59:34;100818.34;;;21.10;69.87
10008;BME280;5043;41.766;26.204;2023-08-21T02:01:59;100808.19;;;20.90;70.43
10008;BME280;5043;41.766;26.204;2023-08-21T02:04:24;100829.41;;;21.15;70.39
10008;BME280;5043;41.766;26.204;2023-08-21T02:06:50;100854.59;;;21.14;70.73
10008;BME280;5043;41.766;26.204;2023-08-21T02:09:15;100848.19;;;21.15;70.79
10008;BME280;5043;41.766;26.204;2023-08-21T02:11:41;100841.16;;;21.14;70.92
10008;BME280;5043;41.766;26.204;2023-08-21T02:14:06;100843.16;;;21.12;71.01
10008;BME280;5043;41.766;26.204;2023-08-21T02:16:32;100850.59;;;20.94;70.92
10008;BME280;5043;41.766;26.204;2023-08-21T02:18:58;100843.63;;;21.24;70.64
10008;BME280;5043;41.766;26.204;2023-08-21T02:21:23;100821.88;;;21.11;70.77
10008;BME280;5043;41.766;26.204;2023-08-21T02:23:49;100790.59;;;20.87;70.68
10008;BME280;5043;41.766;26.204;2023-08-21T02:26:14;100844.19;;;21.11;70.91
10008;BME280;5043;41.766;26.204;2023-08-21T02:28:39;100842.06;;;21.30;70.26
10008;BME280;5043;41.766;26.204;2023-08-21T02:31:11;100797.97;;;20.85;70.70
10008;BME280;5043;41.766;26.204;2023-08-21T02:33:37;100796.16;;;20.86;70.96
10008;BME280;5043;41.766;26.204;2023-08-21T02:36:02;100855.25;;;21.16;70.96
10008;BME280;5043;41.766;26.204;2023-08-21T02:38:28;100846.88;;;21.11;71.41
10008;BME280;5043;41.766;26.204;2023-08-21T02:40:54;100840.84;;;21.09;71.50
10008;BME280;5043;41.766;26.204;2023-08-21T02:43:20;100787.28;;;20.77;71.39
10008;BME280;5043;41.766;26.204;2023-08-21T02:45:46;100826.78;;;21.07;71.46
10008;BME280;5043;41.766;26.204;2023-08-21T02:48:11;100835.47;;;21.09;71.57
10008;BME280;5043;41.766;26.204;2023-08-21T02:50:37;100845.03;;;21.04;72.00
10008;BME280;5043;41.766;26.204;2023-08-21T02:53:03;100814.72;;;20.87;71.86
10008;BME280;5043;41.766;26.204;2023-08-21T02:55:28;100859.81;;;21.00;72.10
10008;BME280;5043;41.766;26.204;2023-08-21T02:57:54;100867.69;;;21.09;71.89
10008;BME280;5043;41.766;26.204;2023-08-21T03:00:20;100827.28;;;21.03;71.70
10008;BME280;5043;41.766;26.204;2023-08-21T03:02:46;100823.44;;;20.89;72.33
10008;BME280;5043;41.766;26.204;2023-08-21T03:05:12;100830.75;;;21.03;72.18
10008;BME280;5043;41.766;26.204;2023-08-21T03:07:42;100850.44;;;20.96;72.98
10008;BME280;5043;41.766;26.204;2023-08-21T03:10:11;100789.56;;;20.49;73.62
10008;BME280;5043;41.766;26.204;2023-08-21T03:12:36;100825.19;;;20.74;73.32
10008;BME280;5043;41.766;26.204;2023-08-21T03:15:03;100838.75;;;20.73;74.08
10008;BME280;5043;41.766;26.204;2023-08-21T03:17:28;100833.09;;;20.60;74.81
10008;BME280;5043;41.766;26.204;2023-08-21T03:19:54;100839.31;;;20.60;74.78
10008;BME280;5043;41.766;26.204;2023-08-21T03:22:21;100845.84;;;20.58;75.44
10008;BME280;5043;41.766;26.204;2023-08-21T03:24:47;100852.84;;;20.67;75.11
10008;BME280;5043;41.766;26.204;2023-08-21T03:27:15;100848.00;;;20.62;75.81
10008;BME280;5043;41.766;26.204;2023-08-21T03:29:43;100870.31;;;20.63;75.85
10008;BME280;5043;41.766;26.204;2023-08-21T03:32:17;100855.41;;;20.60;76.12
10008;BME280;5043;41.766;26.204;2023-08-21T03:34:44;100793.81;;;20.04;77.22
10008;BME280;5043;41.766;26.204;2023-08-21T03:37:10;100860.09;;;20.58;76.80
10008;BME280;5043;41.766;26.204;2023-08-21T03:39:37;100839.38;;;20.28;77.47
10008;BME280;5043;41.766;26.204;2023-08-21T03:42:02;100831.34;;;20.28;77.61
10008;BME280;5043;41.766;26.204;2023-08-21T03:44:31;100851.41;;;20.48;77.54
10008;BME280;5043;41.766;26.204;2023-08-21T03:47:00;100843.34;;;20.40;77.45
10008;BME280;5043;41.766;26.204;2023-08-21T03:49:29;100860.91;;;20.58;77.14
10008;BME280;5043;41.766;26.204;2023-08-21T03:51:55;100868.31;;;20.48;78.27
10008;BME280;5043;41.766;26.204;2023-08-21T03:54:21;100886.56;;;20.53;78.15
10008;BME280;5043;41.766;26.204;2023-08-21T03:56:47;100810.72;;;20.20;78.50
10008;BME280;5043;41.766;26.204;2023-08-21T03:59:12;100872.03;;;20.39;78.70
10008;BME280;5043;41.766;26.204;2023-08-21T04:01:38;100865.63;;;20.56;78.40
10008;BME280;5043;41.766;26.204;2023-08-21T04:04:03;100868.16;;;20.58;78.71
10008;BME280;5043;41.766;26.204;2023-08-21T04:06:29;100864.81;;;20.48;78.61
10008;BME280;5043;41.766;26.204;2023-08-21T04:08:54;100705.78;;;19.76;77.87
10008;BME280;5043;41.766;26.204;2023-08-21T04:11:20;100878.53;;;20.45;78.91
10008;BME280;5043;41.766;26.204;2023-08-21T04:13:45;100888.94;;;20.56;79.14
10008;BME280;5043;41.766;26.204;2023-08-21T04:16:11;100820.06;;;20.16;79.42
10008;BME280;5043;41.766;26.204;2023-08-21T04:18:37;100883.19;;;20.59;79.45
10008;BME280;5043;41.766;26.204;2023-08-21T04:21:04;100857.09;;;20.53;78.99
10008;BME280;5043;41.766;26.204;2023-08-21T04:23:30;100827.59;;;20.45;78.45
10008;BME280;5043;41.766;26.204;2023-08-21T04:26:03;100865.75;;;20.79;78.39
10008;BME280;5043;41.766;26.204;2023-08-21T04:28:30;100880.94;;;20.95;78.58
10008;BME280;5043;41.766;26.204;2023-08-21T04:30:56;100878.44;;;20.93;78.83
10008;BME280;5043;41.766;26.204;2023-08-21T04:33:24;100871.91;;;20.88;79.03
10008;BME280;5043;41.766;26.204;2023-08-21T04:35:50;100867.91;;;20.84;79.29
10008;BME280;5043;41.766;26.204;2023-08-21T04:38:15;100886.78;;;20.98;79.28
10008;BME280;5043;41.766;26.204;2023-08-21T04:40:41;100835.06;;;20.74;79.19
10008;BME280;5043;41.766;26.204;2023-08-21T04:43:09;100883.41;;;21.12;79.09
10008;BME280;5043;41.766;26.204;2023-08-21T04:45:35;100867.50;;;21.11;79.15
10008;BME280;5043;41.766;26.204;2023-08-21T04:48:06;100873.19;;;21.08;79.41
10008;BME280;5043;41.766;26.204;2023-08-21T04:50:31;100873.97;;;21.24;79.52
10008;BME280;5043;41.766;26.204;2023-08-21T04:52:56;100864.66;;;20.96;78.90
10008;BME280;5043;41.766;26.204;2023-08-21T04:55:22;100810.81;;;21.06;78.86
10008;BME280;5043;41.766;26.204;2023-08-21T04:57:49;100865.84;;;21.41;78.80
10008;BME280;5043;41.766;26.204;2023-08-21T05:00:15;100871.16;;;21.79;77.81
10008;BME280;5043;41.766;26.204;2023-08-21T05:02:40;100871.59;;;21.83;77.49
10008;BME280;5043;41.766;26.204;2023-08-21T05:05:06;100859.31;;;21.97;77.05
10008;BME280;5043;41.766;26.204;2023-08-21T05:07:32;100882.72;;;22.25;76.29
10008;BME280;5043;41.766;26.204;2023-08-21T05:10:02;100873.31;;;22.29;75.78
10008;BME280;5043;41.766;26.204;2023-08-21T05:12:32;100873.34;;;22.58;75.58
10008;BME280;5043;41.766;26.204;2023-08-21T05:15:09;100782.16;;;22.20;74.95
10008;BME280;5043;41.766;26.204;2023-08-21T05:17:34;100857.53;;;22.64;74.58
10008;BME280;5043;41.766;26.204;2023-08-21T05:20:00;100872.75;;;23.00;74.18
10008;BME280;5043;41.766;26.204;2023-08-21T05:22:26;100881.53;;;23.23;74.05
10008;BME280;5043;41.766;26.204;2023-08-21T05:24:52;100858.97;;;23.24;73.49
10008;BME280;5043;41.766;26.204;2023-08-21T05:27:18;100878.16;;;23.65;72.93
10008;BME280;5043;41.766;26.204;2023-08-21T05:29:44;100863.53;;;23.74;71.54
10008;BME280;5043;41.766;26.204;2023-08-21T05:32:09;100862.66;;;23.88;70.66
10008;BME280;5043;41.766;26.204;2023-08-21T05:34:35;100873.34;;;24.24;68.70
10008;BME280;5043;41.766;26.204;2023-08-21T05:37:00;100876.47;;;24.49;66.98
10008;BME280;5043;41.766;26.204;2023-08-21T05:39:26;100882.41;;;24.93;64.16
10008;BME280;5043;41.766;26.204;2023-08-21T05:41:51;100862.13;;;25.04;62.42
10008;BME280;5043;41.766;26.204;2023-08-21T05:44:17;100893.13;;;25.14;62.68
10008;BME280;5043;41.766;26.204;2023-08-21T05:46:43;100874.50;;;25.39;60.56
10008;BME280;5043;41.766;26.204;2023-08-21T05:49:09;100861.25;;;25.44;59.36
10008;BME280;5043;41.766;26.204;2023-08-21T05:51:34;100824.91;;;25.53;57.83
10008;BME280;5043;41.766;26.204;2023-08-21T05:54:00;100876.78;;;25.96;56.33
10008;BME280;5043;41.766;26.204;2023-08-21T05:56:25;100876.66;;;26.30;54.67
10008;BME280;5043;41.766;26.204;2023-08-21T05:58:51;100885.78;;;26.49;53.35
10008;BME280;5043;41.766;26.204;2023-08-21T06:01:16;100834.75;;;26.52;52.59
10008;BME280;5043;41.766;26.204;2023-08-21T06:03:43;100861.41;;;26.82;51.31
10008;BME280;5043;41.766;26.204;2023-08-21T06:06:09;100877.16;;;27.11;51.53
10008;BME280;5043;41.766;26.204;2023-08-21T06:08:34;100817.88;;;26.77;50.91
10008;BME280;5043;41.766;26.204;2023-08-21T06:10:59;100880.13;;;27.54;49.73
10008;BME280;5043;41.766;26.204;2023-08-21T06:13:25;100888.13;;;27.80;48.22
10008;BME280;5043;41.766;26.204;2023-08-21T06:15:51;100831.88;;;27.69;47.07
10008;BME280;5043;41.766;26.204;2023-08-21T06:18:17;100825.25;;;27.89;46.43
10008;BME280;5043;41.766;26.204;2023-08-21T06:20:43;100869.38;;;28.10;46.19
10008;BME280;5043;41.766;26.204;2023-08-21T06:23:11;100881.91;;;28.35;45.99
10008;BME280;5043;41.766;26.204;2023-08-21T06:25:37;100894.53;;;28.48;45.20
10008;BME280;5043;41.766;26.204;2023-08-21T06:28:03;100896.28;;;28.67;44.49
10008;BME280;5043;41.766;26.204;2023-08-21T06:30:29;100896.75;;;29.00;43.46
10008;BME280;5043;41.766;26.204;2023-08-21T06:32:55;100863.31;;;29.00;42.40
10008;BME280;5043;41.766;26.204;2023-08-21T06:35:20;100807.75;;;28.78;41.66
10008;BME280;5043;41.766;26.204;2023-08-21T06:37:46;100894.06;;;29.37;41.84
10008;BME280;5043;41.766;26.204;2023-08-21T06:40:12;100890.81;;;29.46;41.14
10008;BME280;5043;41.766;26.204;2023-08-21T06:42:38;100893.78;;;29.74;40.81
10008;BME280;5043;41.766;26.204;2023-08-21T06:45:06;100901.34;;;30.02;39.55
10008;BME280;5043;41.766;26.204;2023-08-21T06:47:32;100871.06;;;30.10;39.04
10008;BME280;5043;41.766;26.204;2023-08-21T06:49:58;100842.88;;;30.05;38.49
10008;BME280;5043;41.766;26.204;2023-08-21T06:52:26;100875.16;;;30.42;38.63
10008;BME280;5043;41.766;26.204;2023-08-21T06:54:51;100892.56;;;30.65;37.67
10008;BME280;5043;41.766;26.204;2023-08-21T06:57:17;100890.81;;;30.70;37.64
10008;BME280;5043;41.766;26.204;2023-08-21T06:59:43;100868.41;;;30.80;37.06
10008;BME280;5043;41.766;26.204;2023-08-21T07:02:08;100873.00;;;31.02;36.46
10008;BME280;5043;41.766;26.204;2023-08-21T07:04:34;100885.66;;;31.32;35.71
10008;BME280;5043;41.766;26.204;2023-08-21T07:06:59;100879.00;;;31.39;35.86
10008;BME280;5043;41.766;26.204;2023-08-21T07:09:25;100879.31;;;31.54;34.80
10008;BME280;5043;41.766;26.204;2023-08-21T07:11:51;100834.97;;;31.36;34.37
10008;BME280;5043;41.766;26.204;2023-08-21T07:14:16;100884.44;;;31.79;34.75
10008;BME280;5043;41.766;26.204;2023-08-21T07:16:43;100878.78;;;31.97;34.35
10008;BME280;5043;41.766;26.204;2023-08-21T07:19:08;100878.31;;;32.17;34.41
10008;BME280;5043;41.766;26.204;2023-08-21T07:21:34;100882.13;;;32.49;33.39
10008;BME280;5043;41.766;26.204;2023-08-21T07:24:03;100876.22;;;32.74;33.08
10008;BME280;5043;41.766;26.204;2023-08-21T07:26:29;100875.84;;;33.03;31.96
10008;BME280;5043;41.766;26.204;2023-08-21T07:28:58;100872.09;;;33.09;31.85
10008;BME280;5043;41.766;26.204;2023-08-21T07:31:24;100863.31;;;33.07;32.20
10008;BME280;5043;41.766;26.204;2023-08-21T07:33:50;100854.41;;;33.39;31.27
10008;BME280;5043;41.766;26.204;2023-08-21T07:36:15;100847.22;;;33.33;31.77
10008;BME280;5043;41.766;26.204;2023-08-21T07:38:44;100874.59;;;33.54;31.61
10008;BME280;5043;41.766;26.204;2023-08-21T07:41:10;100867.91;;;33.72;29.01
10008;BME280;5043;41.766;26.204;2023-08-21T07:43:40;100809.41;;;33.78;24.92
10008;BME280;5043;41.766;26.204;2023-08-21T07:49:03;100868.31;;;34.81;21.63
10008;BME280;5043;41.766;26.204;2023-08-21T07:51:28;100849.38;;;34.79;21.17
10008;BME280;5043;41.766;26.204;2023-08-21T07:53:54;100853.09;;;35.05;21.35
10008;BME280;5043;41.766;26.204;2023-08-21T07:56:19;100876.25;;;35.29;20.96
10008;BME280;5043;41.766;26.204;2023-08-21T07:58:45;100889.19;;;35.39;21.20
10008;BME280;5043;41.766;26.204;2023-08-21T08:01:10;100815.56;;;35.26;21.31
10008;BME280;5043;41.766;26.204;2023-08-21T08:03:35;100857.69;;;35.66;21.17
10008;BME280;5043;41.766;26.204;2023-08-21T08:06:01;100835.47;;;35.68;20.81
10008;BME280;5043;41.766;26.204;2023-08-21T08:08:26;100838.22;;;35.73;20.24
10008;BME280;5043;41.766;26.204;2023-08-21T08:10:52;100854.44;;;35.79;20.43
10008;BME280;5043;41.766;26.204;2023-08-21T08:13:17;100870.94;;;35.89;20.07
10008;BME280;5043;41.766;26.204;2023-08-21T08:15:43;100835.19;;;35.69;20.16
10008;BME280;5043;41.766;26.204;2023-08-21T08:18:12;100848.66;;;35.86;20.29
10008;BME280;5043;41.766;26.204;2023-08-21T08:20:38;100815.97;;;35.69;20.05
10008;BME280;5043;41.766;26.204;2023-08-21T08:23:03;100849.50;;;35.81;20.59
10008;BME280;5043;41.766;26.204;2023-08-21T08:25:28;100845.09;;;35.85;20.15
10008;BME280;5043;41.766;26.204;2023-08-21T08:27:54;100836.31;;;35.94;20.05
10008;BME280;5043;41.766;26.204;2023-08-21T08:30:19;100763.75;;;35.59;19.70
10008;BME280;5043;41.766;26.204;2023-08-21T08:32:45;100855.84;;;36.37;19.88
10008;BME280;5043;41.766;26.204;2023-08-21T08:35:14;100861.09;;;36.34;19.35
10008;BME280;5043;41.766;26.204;2023-08-21T08:37:41;100805.28;;;36.13;19.86
10008;BME280;5043;41.766;26.204;2023-08-21T08:40:07;100839.34;;;36.27;19.45
10008;BME280;5043;41.766;26.204;2023-08-21T08:42:34;100840.72;;;36.35;19.48
10008;BME280;5043;41.766;26.204;2023-08-21T08:45:02;100784.13;;;36.14;19.48
10008;BME280;5043;41.766;26.204;2023-08-21T08:47:32;100823.97;;;36.36;19.78
10008;BME280;5043;41.766;26.204;2023-08-21T08:50:03;100819.81;;;36.49;19.37
10008;BME280;5043;41.766;26.204;2023-08-21T08:52:31;100842.91;;;36.63;19.59
10008;BME280;5043;41.766;26.204;2023-08-21T08:54:59;100853.34;;;36.71;19.50
10008;BME280;5043;41.766;26.204;2023-08-21T08:57:24;100841.22;;;36.77;19.83
10008;BME280;5043;41.766;26.204;2023-08-21T08:59:50;100773.03;;;36.44;19.91
10008;BME280;5043;41.766;26.204;2023-08-21T09:02:15;100820.53;;;36.90;19.67
10008;BME280;5043;41.766;26.204;2023-08-21T09:04:41;100837.50;;;37.12;19.59
10008;BME280;5043;41.766;26.204;2023-08-21T09:07:10;100848.78;;;37.20;18.74
10008;BME280;5043;41.766;26.204;2023-08-21T09:09:40;100832.31;;;37.10;19.13
10008;BME280;5043;41.766;26.204;2023-08-21T09:12:10;100768.28;;;36.80;18.67
10008;BME280;5043;41.766;26.204;2023-08-21T09:14:39;100837.75;;;37.26;19.10
10008;BME280;5043;41.766;26.204;2023-08-21T09:17:04;100811.09;;;37.11;19.46
10008;BME280;5043;41.766;26.204;2023-08-21T09:19:30;100823.50;;;37.13;19.58
10008;BME280;5043;41.766;26.204;2023-08-21T09:21:55;100818.19;;;37.27;19.33
10008;BME280;5043;41.766;26.204;2023-08-21T09:24:21;100756.63;;;37.03;19.01
10008;BME280;5043;41.766;26.204;2023-08-21T09:26:46;100823.59;;;37.47;19.14
10008;BME280;5043;41.766;26.204;2023-08-21T09:29:12;100808.22;;;37.41;18.82
10008;BME280;5043;41.766;26.204;2023-08-21T09:31:37;100814.44;;;37.57;18.82
10008;BME280;5043;41.766;26.204;2023-08-21T09:34:04;100811.72;;;37.52;18.76
10008;BME280;5043;41.766;26.204;2023-08-21T09:36:33;100796.91;;;37.43;18.86
10008;BME280;5043;41.766;26.204;2023-08-21T09:38:59;100803.81;;;37.79;19.18
10008;BME280;5043;41.766;26.204;2023-08-21T09:41:25;100774.97;;;37.66;19.21
10008;BME280;5043;41.766;26.204;2023-08-21T09:43:51;100805.59;;;37.99;19.28
10008;BME280;5043;41.766;26.204;2023-08-21T09:46:23;100818.47;;;38.08;18.89
10008;BME280;5043;41.766;26.204;2023-08-21T09:48:49;100797.06;;;38.29;18.76
10008;BME280;5043;41.766;26.204;2023-08-21T09:51:16;100797.06;;;38.29;19.37
10008;BME280;5043;41.766;26.204;2023-08-21T09:53:42;100774.88;;;38.10;19.37
10008;BME280;5043;41.766;26.204;2023-08-21T09:56:07;100792.09;;;38.31;19.58
10008;BME280;5043;41.766;26.204;2023-08-21T09:58:35;100793.31;;;38.43;18.46
10008;BME280;5043;41.766;26.204;2023-08-21T10:01:05;100783.41;;;38.42;19.26
10008;BME280;5043;41.766;26.204;2023-08-21T10:03:38;100779.38;;;38.59;19.22
10008;BME280;5043;41.766;26.204;2023-08-21T10:06:05;100770.25;;;38.58;18.42
10008;BME280;5043;41.766;26.204;2023-08-21T10:08:36;100771.09;;;38.59;19.22
10008;BME280;5043;41.766;26.204;2023-08-21T10:11:05;100771.69;;;38.79;18.98
10008;BME280;5043;41.766;26.204;2023-08-21T10:13:32;100714.03;;;38.54;18.89
10008;BME280;5043;41.766;26.204;2023-08-21T10:15:58;100775.22;;;39.03;18.44
10008;BME280;5043;41.766;26.204;2023-08-21T10:18:30;100767.38;;;39.15;17.92
10008;BME280;5043;41.766;26.204;2023-08-21T10:20:55;100787.97;;;38.99;18.37
10008;BME280;5043;41.766;26.204;2023-08-21T10:26:10;100710.53;;;38.67;18.35
10008;BME280;5043;41.766;26.204;2023-08-21T10:31:31;100754.22;;;39.26;17.87
10008;BME280;5043;41.766;26.204;2023-08-21T10:33:58;100744.50;;;39.29;17.86
10008;BME280;5043;41.766;26.204;2023-08-21T10:39:21;100691.44;;;39.32;17.78
10008;BME280;5043;41.766;26.204;2023-08-21T10:41:57;100802.31;;;39.62;17.98
10008;BME280;5043;41.766;26.204;2023-08-21T10:47:13;100706.75;;;39.56;17.79
10008;BME280;5043;41.766;26.204;2023-08-21T10:49:40;100691.22;;;39.60;17.47
10008;BME280;5043;41.766;26.204;2023-08-21T10:52:08;100741.22;;;40.10;16.84
10008;BME280;5043;41.766;26.204;2023-08-21T10:54:47;100741.78;;;40.25;16.92
10008;BME280;5043;41.766;26.204;2023-08-21T10:57:13;100754.72;;;40.43;16.53
10008;BME280;5043;41.766;26.204;2023-08-21T10:59:40;100737.00;;;40.44;17.47
10008;BME280;5043;41.766;26.204;2023-08-21T11:02:14;100725.00;;;40.63;16.53
10008;BME280;5043;41.766;26.204;2023-08-21T11:04:40;100751.94;;;40.57;16.73
10008;BME280;5043;41.766;26.204;2023-08-21T11:07:07;100670.13;;;39.97;16.67
10008;BME280;5043;41.766;26.204;2023-08-21T11:09:35;100724.75;;;40.18;16.91
10008;BME280;5043;41.766;26.204;2023-08-21T11:12:09;100730.41;;;40.27;15.86
10008;BME280;5043;41.766;26.204;2023-08-21T11:14:35;100730.41;;;40.68;15.66
10008;BME280;5043;41.766;26.204;2023-08-21T11:17:01;100734.28;;;40.80;15.44
10008;BME280;5043;41.766;26.204;2023-08-21T11:19:26;100740.22;;;41.01;15.55
10008;BME280;5043;41.766;26.204;2023-08-21T11:21:52;100657.66;;;40.89;14.78
10008;BME280;5043;41.766;26.204;2023-08-21T11:24:17;100629.88;;;40.94;14.57
10008;BME280;5043;41.766;26.204;2023-08-21T11:26:44;100714.31;;;41.19;14.54
10008;BME280;5043;41.766;26.204;2023-08-21T11:29:09;100739.34;;;41.28;14.91
10008;BME280;5043;41.766;26.204;2023-08-21T11:31:35;100731.94;;;41.59;14.41
10008;BME280;5043;41.766;26.204;2023-08-21T11:34:01;100695.59;;;41.91;13.60
10008;BME280;5043;41.766;26.204;2023-08-21T11:36:26;100666.75;;;41.92;13.59
10008;BME280;5043;41.766;26.204;2023-08-21T11:39:02;100703.03;;;41.73;13.89
10008;BME280;5043;41.766;26.204;2023-08-21T11:41:29;100651.97;;;41.74;13.72
10008;BME280;5043;41.766;26.204;2023-08-21T11:44:01;100715.88;;;42.31;13.61
10008;BME280;5043;41.766;26.204;2023-08-21T11:46:28;100712.63;;;42.07;12.54
10008;BME280;5043;41.766;26.204;2023-08-21T11:48:53;100659.50;;;42.13;12.40
10008;BME280;5043;41.766;26.204;2023-08-21T11:51:19;100704.88;;;42.57;12.41
10008;BME280;5043;41.766;26.204;2023-08-21T11:53:47;100705.94;;;42.38;12.28
10008;BME280;5043;41.766;26.204;2023-08-21T11:56:14;100712.59;;;42.20;12.39
10008;BME280;5043;41.766;26.204;2023-08-21T11:58:42;100707.31;;;42.10;12.56
10008;BME280;5043;41.766;26.204;2023-08-21T12:01:07;100668.25;;;42.07;12.14
10008;BME280;5043;41.766;26.204;2023-08-21T12:03:39;100707.50;;;42.62;12.14
10008;BME280;5043;41.766;26.204;2023-08-21T12:06:08;100713.06;;;42.62;11.29
10008;BME280;5043;41.766;26.204;2023-08-21T12:08:34;100687.75;;;42.80;11.39
10008;BME280;5043;41.766;26.204;2023-08-21T12:11:00;100706.59;;;43.18;11.59
10008;BME280;5043;41.766;26.204;2023-08-21T12:13:26;100703.50;;;43.28;10.98
10008;BME280;5043;41.766;26.204;2023-08-21T12:15:51;100676.03;;;43.43;10.57
10008;BME280;5043;41.766;26.204;2023-08-21T12:18:17;100690.50;;;43.66;11.35
10008;BME280;5043;41.766;26.204;2023-08-21T12:20:42;100681.69;;;43.81;11.21
10008;BME280;5043;41.766;26.204;2023-08-21T12:23:07;100688.16;;;44.02;11.26
10008;BME280;5043;41.766;26.204;2023-08-21T12:25:33;100693.50;;;44.16;11.22
10008;BME280;5043;41.766;26.204;2023-08-21T12:27:58;100649.84;;;44.08;10.88
10008;BME280;5043;41.766;26.204;2023-08-21T12:30:25;100696.47;;;44.49;10.29
10008;BME280;5043;41.766;26.204;2023-08-21T12:32:50;100719.38;;;44.54;10.34
10008;BME280;5043;41.766;26.204;2023-08-21T12:35:15;100692.34;;;44.55;10.38
10008;BME280;5043;41.766;26.204;2023-08-21T12:37:41;100640.94;;;44.43;10.48
10008;BME280;5043;41.766;26.204;2023-08-21T12:40:07;100651.00;;;44.36;10.47
10008;BME280;5043;41.766;26.204;2023-08-21T12:42:32;100705.44;;;44.83;10.40
10008;BME280;5043;41.766;26.204;2023-08-21T12:44:58;100685.22;;;45.48;10.23
10008;BME280;5043;41.766;26.204;2023-08-21T12:47:23;100678.19;;;45.75;9.70
10008;BME280;5043;41.766;26.204;2023-08-21T12:49:48;100669.19;;;46.51;9.40
10008;BME280;5043;41.766;26.204;2023-08-21T12:52:14;100686.63;;;47.51;8.93
10008;BME280;5043;41.766;26.204;2023-08-21T12:54:39;100689.22;;;48.19;8.25
10008;BME280;5043;41.766;26.204;2023-08-21T12:57:05;100658.06;;;48.90;8.13
10008;BME280;5043;41.766;26.204;2023-08-21T12:59:31;100687.47;;;49.57;7.96
10008;BME280;5043;41.766;26.204;2023-08-21T13:01:59;100669.59;;;50.10;7.64